sensor_id;sensor_type;location;lat;lon;timestamp;temperature;humidity
20504;DHT22;10410;51.046;6.980;2022-12-18T00:03:26;-4.90;99.90
20504;DHT22;10410;51.046;6.980;2022-12-18T00:10:28;-4.90;99.90
20504;DHT22;10410;51.046;6.980;2022-12-18T00:17:28;-4.90;99.90
20504;DHT22;10410;51.046;6.980;2022-12-18T00:24:29;-4.90;99.90
20504;DHT22;10410;51.046;6.980;2022-12-18T00:31:30;-4.90;99.90
20504;DHT22;10410;51.046;6.980;2022-12-18T00:38:31;-4.80;99.90
20504;DHT22;10410;51.046;6.980;2022-12-18T00:45:31;-4.80;99.90
20504;DHT22;10410;51.046;6.980;2022-12-18T00:52:32;-4.70;99.90
20504;DHT22;10410;51.046;6.980;2022-12-18T00:59:32;-4.70;99.90
20504;DHT22;10410;51.046;6.980;2022-12-18T01:06:35;-4.70;99.90
20504;DHT22;10410;51.046;6.980;2022-12-18T01:13:35;-4.70;99.90
20504;DHT22;10410;51.046;6.980;2022-12-18T01:20:37;-4.70;99.90
20504;DHT22;10410;51.046;6.980;2022-12-18T01:27:38;-4.70;99.90
20504;DHT22;10410;51.046;6.980;2022-12-18T01:34:38;-4.70;99.90
20504;DHT22;10410;51.046;6.980;2022-12-18T01:41:39;-4.70;99.90
20504;DHT22;10410;51.046;6.980;2022-12-18T01:49:01;-4.60;99.90
20504;DHT22;10410;51.046;6.980;2022-12-18T01:56:01;-4.60;99.90
20504;DHT22;10410;51.046;6.980;2022-12-18T02:03:02;-4.60;99.90
20504;DHT22;10410;51.046;6.980;2022-12-18T02:10:07;-4.60;99.90
20504;DHT22;10410;51.046;6.980;2022-12-18T02:24:30;-4.70;99.90
20504;DHT22;10410;51.046;6.980;2022-12-18T02:31:39;-4.70;99.90
20504;DHT22;10410;51.046;6.980;2022-12-18T02:38:42;-4.80;99.90
20504;DHT22;10410;51.046;6.980;2022-12-18T02:46:00;-4.80;99.90
20504;DHT22;10410;51.046;6.980;2022-12-18T02:53:14;-4.90;99.90
20504;DHT22;10410;51.046;6.980;2022-12-18T03:00:22;-5.00;99.90
20504;DHT22;10410;51.046;6.980;2022-12-18T03:07:53;-5.00;99.90
20504;DHT22;10410;51.046;6.980;2022-12-18T03:22:24;-5.10;99.90
20504;DHT22;10410;51.046;6.980;2022-12-18T03:29:34;-5.20;99.90
20504;DHT22;10410;51.046;6.980;2022-12-18T03:36:37;-5.20;99.90
20504;DHT22;10410;51.046;6.980;2022-12-18T03:44:06;-5.30;99.90
20504;DHT22;10410;51.046;6.980;2022-12-18T03:51:15;-5.30;99.90
20504;DHT22;10410;51.046;6.980;2022-12-18T03:58:23;-5.40;99.90
20504;DHT22;10410;51.046;6.980;2022-12-18T04:05:33;-5.40;99.90
20504;DHT22;10410;51.046;6.980;2022-12-18T04:12:37;-5.40;99.90
20504;DHT22;10410;51.046;6.980;2022-12-18T04:19:40;-5.50;99.90
20504;DHT22;10410;51.046;6.980;2022-12-18T04:26:41;-5.50;99.90
20504;DHT22;10410;51.046;6.980;2022-12-18T04:33:55;-5.40;99.90
20504;DHT22;10410;51.046;6.980;2022-12-18T04:40:56;-5.40;99.90
20504;DHT22;10410;51.046;6.980;2022-12-18T04:48:00;-5.50;99.90
20504;DHT22;10410;51.046;6.980;2022-12-18T04:55:01;-5.50;99.90
20504;DHT22;10410;51.046;6.980;2022-12-18T05:02:02;-5.60;99.90
20504;DHT22;10410;51.046;6.980;2022-12-18T05:09:02;-5.50;99.90
20504;DHT22;10410;51.046;6.980;2022-12-18T05:16:04;-5.50;99.90
20504;DHT22;10410;51.046;6.980;2022-12-18T05:23:05;-5.60;99.90
20504;DHT22;10410;51.046;6.980;2022-12-18T05:30:05;-5.60;99.90
20504;DHT22;10410;51.046;6.980;2022-12-18T05:37:06;-5.60;99.90
20504;DHT22;10410;51.046;6.980;2022-12-18T05:44:06;-5.70;99.90
20504;DHT22;10410;51.046;6.980;2022-12-18T05:51:13;-5.70;99.90
20504;DHT22;10410;51.046;6.980;2022-12-18T05:58:15;-5.70;99.90
20504;DHT22;10410;51.046;6.980;2022-12-18T06:05:15;-5.70;99.90
20504;DHT22;10410;51.046;6.980;2022-12-18T06:12:16;-5.80;99.90
20504;DHT22;10410;51.046;6.980;2022-12-18T06:19:17;-5.80;99.90
20504;DHT22;10410;51.046;6.980;2022-12-18T06:26:17;-5.80;99.90
20504;DHT22;10410;51.046;6.980;2022-12-18T06:33:26;-5.70;99.90
20504;DHT22;10410;51.046;6.980;2022-12-18T06:40:28;-5.80;99.90
20504;DHT22;10410;51.046;6.980;2022-12-18T06:47:28;-5.80;99.90
20504;DHT22;10410;51.046;6.980;2022-12-18T06:54:28;-5.70;99.90
20504;DHT22;10410;51.046;6.980;2022-12-18T07:01:29;-5.70;99.90
20504;DHT22;10410;51.046;6.980;2022-12-18T07:08:31;-5.80;99.90
20504;DHT22;10410;51.046;6.980;2022-12-18T07:15:31;-5.80;99.90
20504;DHT22;10410;51.046;6.980;2022-12-18T07:22:32;-5.80;99.90
20504;DHT22;10410;51.046;6.980;2022-12-18T07:29:32;-5.80;99.90
20504;DHT22;10410;51.046;6.980;2022-12-18T07:36:32;-5.80;99.90
20504;DHT22;10410;51.046;6.980;2022-12-18T07:43:34;-5.80;99.90
20504;DHT22;10410;51.046;6.980;2022-12-18T07:50:34;-5.80;99.90
20504;DHT22;10410;51.046;6.980;2022-12-18T07:57:34;-5.80;99.90
20504;DHT22;10410;51.046;6.980;2022-12-18T08:04:55;-5.80;99.90
20504;DHT22;10410;51.046;6.980;2022-12-18T08:11:55;-5.80;99.90
20504;DHT22;10410;51.046;6.980;2022-12-18T08:18:56;-5.80;99.90
20504;DHT22;10410;51.046;6.980;2022-12-18T08:25:58;-5.70;99.90
20504;DHT22;10410;51.046;6.980;2022-12-18T08:32:58;-5.60;99.90
20504;DHT22;10410;51.046;6.980;2022-12-18T08:39:59;-5.40;99.90
20504;DHT22;10410;51.046;6.980;2022-12-18T08:46:59;-5.30;99.90
20504;DHT22;10410;51.046;6.980;2022-12-18T08:54:00;-5.10;99.90
20504;DHT22;10410;51.046;6.980;2022-12-18T09:01:02;-4.90;99.90
20504;DHT22;10410;51.046;6.980;2022-12-18T09:08:02;-4.70;99.90
20504;DHT22;10410;51.046;6.980;2022-12-18T09:15:03;-4.40;99.90
20504;DHT22;10410;51.046;6.980;2022-12-18T09:22:04;-4.10;99.90
20504;DHT22;10410;51.046;6.980;2022-12-18T09:29:04;-3.90;99.90
20504;DHT22;10410;51.046;6.980;2022-12-18T09:36:09;-3.70;99.90
20504;DHT22;10410;51.046;6.980;2022-12-18T09:43:18;-3.60;99.90
20504;DHT22;10410;51.046;6.980;2022-12-18T09:50:38;-3.30;99.90
20504;DHT22;10410;51.046;6.980;2022-12-18T09:57:45;-3.00;99.90
20504;DHT22;10410;51.046;6.980;2022-12-18T10:05:02;-2.70;99.90
20504;DHT22;10410;51.046;6.980;2022-12-18T10:12:21;-2.30;99.90
20504;DHT22;10410;51.046;6.980;2022-12-18T10:26:49;-1.80;99.90
20504;DHT22;10410;51.046;6.980;2022-12-18T10:33:50;-1.60;99.90
20504;DHT22;10410;51.046;6.980;2022-12-18T10:40:55;-1.40;99.90
20504;DHT22;10410;51.046;6.980;2022-12-18T10:47:55;-1.20;99.90
20504;DHT22;10410;51.046;6.980;2022-12-18T10:54:59;-1.00;99.90
20504;DHT22;10410;51.046;6.980;2022-12-18T11:02:07;-0.90;99.90
20504;DHT22;10410;51.046;6.980;2022-12-18T11:16:26;-0.60;99.90
20504;DHT22;10410;51.046;6.980;2022-12-18T11:23:27;-0.50;99.90
20504;DHT22;10410;51.046;6.980;2022-12-18T11:30:33;-0.40;99.90
20504;DHT22;10410;51.046;6.980;2022-12-18T11:37:35;-0.30;99.90
20504;DHT22;10410;51.046;6.980;2022-12-18T11:59:03;-0.10;99.90
20504;DHT22;10410;51.046;6.980;2022-12-18T12:20:47;-0.20;99.90
20504;DHT22;10410;51.046;6.980;2022-12-18T12:42:37;-0.20;99.90
20504;DHT22;10410;51.046;6.980;2022-12-18T12:49:59;-0.20;99.90
20504;DHT22;10410;51.046;6.980;2022-12-18T12:57:30;-0.30;99.90
20504;DHT22;10410;51.046;6.980;2022-12-18T13:04:57;-0.30;99.90
20504;DHT22;10410;51.046;6.980;2022-12-18T13:12:11;-0.30;99.90
20504;DHT22;10410;51.046;6.980;2022-12-18T13:19:35;-0.20;99.90
20504;DHT22;10410;51.046;6.980;2022-12-18T13:26:35;-0.20;99.90
20504;DHT22;10410;51.046;6.980;2022-12-18T13:33:42;-0.30;99.90
20504;DHT22;10410;51.046;6.980;2022-12-18T13:41:22;-0.30;99.90
20504;DHT22;10410;51.046;6.980;2022-12-18T13:48:24;-0.30;99.90
20504;DHT22;10410;51.046;6.980;2022-12-18T13:55:25;-0.30;99.90
20504;DHT22;10410;51.046;6.980;2022-12-18T14:02:28;-0.30;99.90
20504;DHT22;10410;51.046;6.980;2022-12-18T14:09:31;-0.40;99.90
20504;DHT22;10410;51.046;6.980;2022-12-18T14:16:31;-0.40;99.90
20504;DHT22;10410;51.046;6.980;2022-12-18T14:23:38;-0.50;99.90
20504;DHT22;10410;51.046;6.980;2022-12-18T14:30:41;-0.50;99.90
20504;DHT22;10410;51.046;6.980;2022-12-18T14:37:42;-0.60;99.90
20504;DHT22;10410;51.046;6.980;2022-12-18T14:44:42;-0.60;99.90
20504;DHT22;10410;51.046;6.980;2022-12-18T14:52:06;-0.60;99.90
20504;DHT22;10410;51.046;6.980;2022-12-18T14:59:22;-0.60;99.90
20504;DHT22;10410;51.046;6.980;2022-12-18T15:13:30;-0.70;99.90
20504;DHT22;10410;51.046;6.980;2022-12-18T15:21:35;-0.70;99.90
20504;DHT22;10410;51.046;6.980;2022-12-18T15:28:04;-0.70;99.90
20504;DHT22;10410;51.046;6.980;2022-12-18T15:35:21;-0.70;99.90
20504;DHT22;10410;51.046;6.980;2022-12-18T15:42:22;-0.80;99.90
20504;DHT22;10410;51.046;6.980;2022-12-18T15:49:41;-0.70;99.90
20504;DHT22;10410;51.046;6.980;2022-12-18T15:56:41;-0.70;99.90
20504;DHT22;10410;51.046;6.980;2022-12-18T16:04:00;-0.80;99.90
20504;DHT22;10410;51.046;6.980;2022-12-18T16:11:01;-0.90;99.90
20504;DHT22;10410;51.046;6.980;2022-12-18T16:18:02;-0.90;99.90
20504;DHT22;10410;51.046;6.980;2022-12-18T16:25:02;-1.00;99.90
20504;DHT22;10410;51.046;6.980;2022-12-18T16:32:04;-1.00;99.90
20504;DHT22;10410;51.046;6.980;2022-12-18T16:39:04;-1.00;99.90
20504;DHT22;10410;51.046;6.980;2022-12-18T16:46:04;-1.10;99.90
20504;DHT22;10410;51.046;6.980;2022-12-18T16:53:05;-1.10;99.90
20504;DHT22;10410;51.046;6.980;2022-12-18T17:00:06;-1.20;99.90
20504;DHT22;10410;51.046;6.980;2022-12-18T17:07:07;-1.20;99.90
20504;DHT22;10410;51.046;6.980;2022-12-18T17:14:18;-1.20;99.90
20504;DHT22;10410;51.046;6.980;2022-12-18T17:21:19;-1.30;99.90
20504;DHT22;10410;51.046;6.980;2022-12-18T17:28:19;-1.30;99.90
20504;DHT22;10410;51.046;6.980;2022-12-18T17:35:20;-1.40;99.90
20504;DHT22;10410;51.046;6.980;2022-12-18T17:42:21;-1.40;99.90
20504;DHT22;10410;51.046;6.980;2022-12-18T17:49:21;-1.40;99.90
20504;DHT22;10410;51.046;6.980;2022-12-18T17:56:23;-1.50;99.90
20504;DHT22;10410;51.046;6.980;2022-12-18T18:03:25;-1.50;99.90
20504;DHT22;10410;51.046;6.980;2022-12-18T18:10:25;-1.50;99.90
20504;DHT22;10410;51.046;6.980;2022-12-18T18:17:26;-1.60;99.90
20504;DHT22;10410;51.046;6.980;2022-12-18T18:24:26;-1.60;99.90
20504;DHT22;10410;51.046;6.980;2022-12-18T18:31:28;-1.60;99.90
20504;DHT22;10410;51.046;6.980;2022-12-18T18:38:29;-1.60;99.90
20504;DHT22;10410;51.046;6.980;2022-12-18T18:45:29;-1.60;99.90
20504;DHT22;10410;51.046;6.980;2022-12-18T18:52:30;-1.60;99.90
20504;DHT22;10410;51.046;6.980;2022-12-18T18:59:30;-1.60;99.90
20504;DHT22;10410;51.046;6.980;2022-12-18T19:06:31;-1.60;99.90
20504;DHT22;10410;51.046;6.980;2022-12-18T19:13:33;-1.60;99.90
20504;DHT22;10410;51.046;6.980;2022-12-18T19:20:33;-1.50;99.90
20504;DHT22;10410;51.046;6.980;2022-12-18T19:27:33;-1.50;99.90
20504;DHT22;10410;51.046;6.980;2022-12-18T19:34:37;-1.50;99.90
20504;DHT22;10410;51.046;6.980;2022-12-18T19:41:38;-1.50;99.90
20504;DHT22;10410;51.046;6.980;2022-12-18T19:48:39;-1.40;99.90
20504;DHT22;10410;51.046;6.980;2022-12-18T19:55:41;-1.40;99.90
20504;DHT22;10410;51.046;6.980;2022-12-18T20:02:43;-1.30;99.90
20504;DHT22;10410;51.046;6.980;2022-12-18T20:09:43;-1.30;99.90
20504;DHT22;10410;51.046;6.980;2022-12-18T20:16:44;-1.20;99.90
20504;DHT22;10410;51.046;6.980;2022-12-18T20:23:45;-1.20;99.90
20504;DHT22;10410;51.046;6.980;2022-12-18T20:30:45;-1.10;99.90
20504;DHT22;10410;51.046;6.980;2022-12-18T20:37:46;-1.00;99.90
20504;DHT22;10410;51.046;6.980;2022-12-18T20:44:50;-0.90;99.90
20504;DHT22;10410;51.046;6.980;2022-12-18T20:51:52;-0.90;99.90
20504;DHT22;10410;51.046;6.980;2022-12-18T20:58:55;-0.80;99.90
20504;DHT22;10410;51.046;6.980;2022-12-18T21:05:56;-0.70;99.90
20504;DHT22;10410;51.046;6.980;2022-12-18T21:12:56;-0.70;99.90
20504;DHT22;10410;51.046;6.980;2022-12-18T21:20:02;-0.60;99.90
20504;DHT22;10410;51.046;6.980;2022-12-18T21:27:03;-0.40;99.90
20504;DHT22;10410;51.046;6.980;2022-12-18T21:34:05;-0.50;99.90
20504;DHT22;10410;51.046;6.980;2022-12-18T21:41:07;-0.50;99.90
20504;DHT22;10410;51.046;6.980;2022-12-18T21:48:07;-0.40;99.90
20504;DHT22;10410;51.046;6.980;2022-12-18T21:55:08;-0.40;99.90
20504;DHT22;10410;51.046;6.980;2022-12-18T22:02:15;-0.30;99.90
20504;DHT22;10410;51.046;6.980;2022-12-18T22:09:19;-0.30;99.90
20504;DHT22;10410;51.046;6.980;2022-12-18T22:16:20;-0.30;99.90
20504;DHT22;10410;51.046;6.980;2022-12-18T22:23:20;-0.30;99.90
20504;DHT22;10410;51.046;6.980;2022-12-18T22:30:20;-0.30;99.90
20504;DHT22;10410;51.046;6.980;2022-12-18T22:37:21;-0.30;99.90
20504;DHT22;10410;51.046;6.980;2022-12-18T22:44:21;-0.30;99.90
20504;DHT22;10410;51.046;6.980;2022-12-18T22:51:22;-0.30;99.90
20504;DHT22;10410;51.046;6.980;2022-12-18T22:58:22;-0.20;99.90
20504;DHT22;10410;51.046;6.980;2022-12-18T23:05:23;-0.20;99.90
20504;DHT22;10410;51.046;6.980;2022-12-18T23:12:23;-0.20;99.90
20504;DHT22;10410;51.046;6.980;2022-12-18T23:19:24;-0.20;99.90
20504;DHT22;10410;51.046;6.980;2022-12-18T23:26:25;-0.10;99.90
20504;DHT22;10410;51.046;6.980;2022-12-18T23:33:25;-0.10;99.90
20504;DHT22;10410;51.046;6.980;2022-12-18T23:40:25;0.00;99.90
20504;DHT22;10410;51.046;6.980;2022-12-18T23:47:26;0.00;99.90
